Detall de PIREP

Printer-friendly versionPDF version

[2016/02/12 08:09:00]
Flight IATA:CT3413
Pilot Number:012
Company ICAO:CAT
Aircraft Type:B744/E
PAX:426
Departing Airport: UUEE
Destination Airport: LEBL
Alternate Airport:LEPA
Online: VATSIM
Route:BG/N0500F380 R805 TU G723 RATIN N869 VTB L999 PINUG T52 RAVOK L856 BABKO/N0499F390 UL856 MAREG DETSA UM984 DIVKO UN975 BGR UL16 VERSO
Flight Level:F390
No Slew and time accel
No pause
Crash detect
Detect pilot in Cockpit between each 30 and 45 minutes
08:09 Zero fuel Weight: 494533 Lbs, Fuel Weight: 124202 Lbs
08:09 VATSIM:UUEE 120730Z 13008MPS 4400 -SN DRSN OVC010 M01/M03 Q1012 R06L/450230 R06R/////// TEMPO 0600 SHSN SCT010CB
08:09 VATSIM:LEBL 120730Z 24005KT 8000 FEW025 11/10 Q1007 NOSIG
08:15 Take-off
08:15 Take off Weight: 616874 Lbs
08:15 Wind: 119º @ 016 Knots Heading: 077º
08:15 POS N55º 58´ 15´´ E037º 25´ 05´´
08:15 Gear Up: 187 Knots
08:15 Flaps:3 at 187 Knots
08:15 Flaps:2 at 211 Knots
08:15 Flaps:1 at 213 Knots
08:16 Flaps:0 at 260 Knots
08:30 Wind:165º@052 Knots Heading: 255º Ground Speed: 491 Knots Altitude 33546 ft
08:45 Wind:223º@023 Knots Heading: 252º Ground Speed: 473 Knots Altitude 37696 ft
09:00 Wind:230º@023 Knots Heading: 227º Ground Speed: 469 Knots Altitude 37703 ft
09:15 Wind:242º@025 Knots Heading: 235º Ground Speed: 467 Knots Altitude 37719 ft
09:30 Wind:247º@029 Knots Heading: 236º Ground Speed: 465 Knots Altitude 37785 ft
09:45 Wind:261º@029 Knots Heading: 229º Ground Speed: 469 Knots Altitude 37811 ft
09:57 TOC
09:57 Fuel Weight: 78773 Lb
10:00 Wind:273º@039 Knots Heading: 229º Ground Speed: 470 Knots Altitude 39527 ft
10:15 Wind:272º@034 Knots Heading: 250º Ground Speed: 466 Knots Altitude 40803 ft
10:30 Wind:274º@031 Knots Heading: 248º Ground Speed: 469 Knots Altitude 40728 ft
10:45 Wind:273º@035 Knots Heading: 244º Ground Speed: 466 Knots Altitude 40698 ft
11:00 Wind:276º@037 Knots Heading: 236º Ground Speed: 469 Knots Altitude 40784 ft
11:15 Wind:283º@041 Knots Heading: 232º Ground Speed: 469 Knots Altitude 40741 ft
11:30 Wind:284º@046 Knots Heading: 249º Ground Speed: 454 Knots Altitude 40662 ft
11:36 TOD
11:36 Fuel Weight: 46653 Lb
11:45 Wind:292º@068 Knots Heading: 253º Ground Speed: 324 Knots Altitude 19189 ft
11:53 Flaps:1 at 215 Knots
11:55 Flaps:2 at 220 Knots
11:58 Flaps:3 at 180 Knots
11:58 Gear Down: 179 Knots
11:58 Flaps:4 at 181 Knots
12:00 Wind:240º@014 Knots Heading: 242º Ground Speed: 179 Knots Altitude 2250 ft
12:00 Flaps:5 at 184 Knots
12:01 Flaps:6 at 181 Knots
12:01 Flaps:5 at 180 Knots
12:01 Flaps:6 at 180 Knots
12:01 Flaps:5 at 176 Knots
12:01 Flaps:6 at 175 Knots
12:01 Flaps:5 at 170 Knots
12:01 Flaps:6 at 170 Knots
12:03TouchDown:Rate -159 ft/min Speed: 140 Knots
12:03 VATSIM:LEBL 121130Z 22015KT 9999 FEW009 14/12 Q1004 NOSIG
12:04 Land
12:04 Wind:219º@015 Knots
12:04 Heading: 244º
12:04 Flight Duration: 03:49
12:04 Landing Weight: 534608 Lbs
12:04 POS N41º 17´ 57´´ E002º 05´ 06´´
12:07 Parking brakes on
12:07 Block to Block Duration: 03:52
12:07 Final Fuel: 39475 Lbls
12:07 Spent Fuel: 84726 Lbls
12:07 Flight Length: 1680 NM
12:07 TOD Land Length: 125 NM

Exportar CSV

Powered by Drupal - Modified by Danger4k